sensor_id;sensor_type;location;lat;lon;timestamp;temperature;humidity
3134;DHT22;1577;49.912;10.924;2023-11-21T00:02:12;8.70;99.90
3134;DHT22;1577;49.912;10.924;2023-11-21T00:04:37;8.70;99.90
3134;DHT22;1577;49.912;10.924;2023-11-21T00:07:03;8.70;99.90
3134;DHT22;1577;49.912;10.924;2023-11-21T00:09:29;8.70;99.90
3134;DHT22;1577;49.912;10.924;2023-11-21T00:11:54;8.70;99.90
3134;DHT22;1577;49.912;10.924;2023-11-21T00:14:20;8.70;99.90
3134;DHT22;1577;49.912;10.924;2023-11-21T00:16:45;8.60;99.90
3134;DHT22;1577;49.912;10.924;2023-11-21T00:19:11;8.70;99.90
3134;DHT22;1577;49.912;10.924;2023-11-21T00:21:37;8.70;99.90
3134;DHT22;1577;49.912;10.924;2023-11-21T00:24:03;8.70;99.90
3134;DHT22;1577;49.912;10.924;2023-11-21T00:26:29;8.70;99.90
3134;DHT22;1577;49.912;10.924;2023-11-21T00:28:56;8.70;99.90
3134;DHT22;1577;49.912;10.924;2023-11-21T00:31:22;8.70;99.90
3134;DHT22;1577;49.912;10.924;2023-11-21T00:33:47;8.70;99.90
3134;DHT22;1577;49.912;10.924;2023-11-21T00:36:13;8.70;99.90
3134;DHT22;1577;49.912;10.924;2023-11-21T00:38:39;8.70;99.90
3134;DHT22;1577;49.912;10.924;2023-11-21T00:41:06;8.70;99.90
3134;DHT22;1577;49.912;10.924;2023-11-21T00:43:31;8.70;99.90
3134;DHT22;1577;49.912;10.924;2023-11-21T00:45:58;8.60;99.90
3134;DHT22;1577;49.912;10.924;2023-11-21T00:48:24;8.60;99.90
3134;DHT22;1577;49.912;10.924;2023-11-21T00:50:49;8.70;99.90
3134;DHT22;1577;49.912;10.924;2023-11-21T00:53:15;8.60;99.90
3134;DHT22;1577;49.912;10.924;2023-11-21T00:55:41;8.60;99.90
3134;DHT22;1577;49.912;10.924;2023-11-21T00:58:06;8.60;99.90
3134;DHT22;1577;49.912;10.924;2023-11-21T01:00:33;8.60;99.90
3134;DHT22;1577;49.912;10.924;2023-11-21T01:02:59;8.70;99.90
3134;DHT22;1577;49.912;10.924;2023-11-21T01:05:25;8.70;99.90
3134;DHT22;1577;49.912;10.924;2023-11-21T01:07:50;8.70;99.90
3134;DHT22;1577;49.912;10.924;2023-11-21T01:10:16;8.70;99.90
3134;DHT22;1577;49.912;10.924;2023-11-21T01:12:42;8.70;99.90
3134;DHT22;1577;49.912;10.924;2023-11-21T01:15:08;8.70;99.90
3134;DHT22;1577;49.912;10.924;2023-11-21T01:17:34;8.70;99.90
3134;DHT22;1577;49.912;10.924;2023-11-21T01:20:03;8.70;99.90
3134;DHT22;1577;49.912;10.924;2023-11-21T01:22:32;8.70;99.90
3134;DHT22;1577;49.912;10.924;2023-11-21T01:24:57;8.80;99.90
3134;DHT22;1577;49.912;10.924;2023-11-21T01:27:23;8.80;99.90
3134;DHT22;1577;49.912;10.924;2023-11-21T01:29:48;8.80;99.90
3134;DHT22;1577;49.912;10.924;2023-11-21T01:32:14;8.70;99.90
3134;DHT22;1577;49.912;10.924;2023-11-21T01:34:39;8.70;99.90
3134;DHT22;1577;49.912;10.924;2023-11-21T01:37:05;8.70;99.90
3134;DHT22;1577;49.912;10.924;2023-11-21T01:39:31;8.70;99.90
3134;DHT22;1577;49.912;10.924;2023-11-21T01:41:57;8.80;99.90
3134;DHT22;1577;49.912;10.924;2023-11-21T01:44:25;8.70;99.90
3134;DHT22;1577;49.912;10.924;2023-11-21T01:46:51;8.70;99.90
3134;DHT22;1577;49.912;10.924;2023-11-21T01:49:17;8.60;99.90
3134;DHT22;1577;49.912;10.924;2023-11-21T01:51:48;8.60;99.90
3134;DHT22;1577;49.912;10.924;2023-11-21T01:54:16;8.60;99.90
3134;DHT22;1577;49.912;10.924;2023-11-21T01:56:44;8.60;99.90
3134;DHT22;1577;49.912;10.924;2023-11-21T01:59:12;8.50;99.90
3134;DHT22;1577;49.912;10.924;2023-11-21T02:01:39;8.50;99.90
3134;DHT22;1577;49.912;10.924;2023-11-21T02:04:05;8.60;99.90
3134;DHT22;1577;49.912;10.924;2023-11-21T02:06:33;8.50;99.90
3134;DHT22;1577;49.912;10.924;2023-11-21T02:08:59;8.50;99.90
3134;DHT22;1577;49.912;10.924;2023-11-21T02:11:25;8.60;99.90
3134;DHT22;1577;49.912;10.924;2023-11-21T02:13:53;8.60;99.90
3134;DHT22;1577;49.912;10.924;2023-11-21T02:16:19;8.60;99.90
3134;DHT22;1577;49.912;10.924;2023-11-21T02:18:47;8.70;99.90
3134;DHT22;1577;49.912;10.924;2023-11-21T02:21:14;8.60;99.90
3134;DHT22;1577;49.912;10.924;2023-11-21T02:23:39;8.60;99.90
3134;DHT22;1577;49.912;10.924;2023-11-21T02:26:10;8.60;99.90
3134;DHT22;1577;49.912;10.924;2023-11-21T02:28:36;8.70;99.90
3134;DHT22;1577;49.912;10.924;2023-11-21T02:31:01;8.70;99.90
3134;DHT22;1577;49.912;10.924;2023-11-21T02:33:30;8.60;99.90
3134;DHT22;1577;49.912;10.924;2023-11-21T02:35:55;8.60;99.90
3134;DHT22;1577;49.912;10.924;2023-11-21T02:38:21;8.60;99.90
3134;DHT22;1577;49.912;10.924;2023-11-21T02:40:47;8.60;99.90
3134;DHT22;1577;49.912;10.924;2023-11-21T02:43:14;8.60;99.90
3134;DHT22;1577;49.912;10.924;2023-11-21T02:45:40;8.60;99.90
3134;DHT22;1577;49.912;10.924;2023-11-21T02:48:07;8.50;99.90
3134;DHT22;1577;49.912;10.924;2023-11-21T02:50:33;8.50;99.90
3134;DHT22;1577;49.912;10.924;2023-11-21T02:53:00;8.50;99.90
3134;DHT22;1577;49.912;10.924;2023-11-21T02:55:27;8.50;99.90
3134;DHT22;1577;49.912;10.924;2023-11-21T02:57:53;8.50;99.90
3134;DHT22;1577;49.912;10.924;2023-11-21T03:00:19;8.50;99.90
3134;DHT22;1577;49.912;10.924;2023-11-21T03:02:45;8.50;99.90
3134;DHT22;1577;49.912;10.924;2023-11-21T03:05:12;8.50;99.90
3134;DHT22;1577;49.912;10.924;2023-11-21T03:07:38;8.50;99.90
3134;DHT22;1577;49.912;10.924;2023-11-21T03:10:05;8.50;99.90
3134;DHT22;1577;49.912;10.924;2023-11-21T03:12:31;8.50;99.90
3134;DHT22;1577;49.912;10.924;2023-11-21T03:14:56;8.50;99.90
3134;DHT22;1577;49.912;10.924;2023-11-21T03:17:22;8.50;99.90
3134;DHT22;1577;49.912;10.924;2023-11-21T03:19:47;8.50;99.90
3134;DHT22;1577;49.912;10.924;2023-11-21T03:22:13;8.50;99.90
3134;DHT22;1577;49.912;10.924;2023-11-21T03:24:39;8.50;99.90
3134;DHT22;1577;49.912;10.924;2023-11-21T03:27:05;8.50;99.90
3134;DHT22;1577;49.912;10.924;2023-11-21T03:29:30;8.50;99.90
3134;DHT22;1577;49.912;10.924;2023-11-21T03:31:56;8.50;99.90
3134;DHT22;1577;49.912;10.924;2023-11-21T03:34:26;8.70;99.90
3134;DHT22;1577;49.912;10.924;2023-11-21T03:36:51;8.60;99.90
3134;DHT22;1577;49.912;10.924;2023-11-21T03:39:19;8.60;99.90
3134;DHT22;1577;49.912;10.924;2023-11-21T03:41:44;8.70;99.90
3134;DHT22;1577;49.912;10.924;2023-11-21T03:44:10;8.60;99.90
3134;DHT22;1577;49.912;10.924;2023-11-21T03:46:36;8.60;99.90
3134;DHT22;1577;49.912;10.924;2023-11-21T03:49:01;8.60;99.90
3134;DHT22;1577;49.912;10.924;2023-11-21T03:51:27;8.60;99.90
3134;DHT22;1577;49.912;10.924;2023-11-21T03:53:52;8.60;99.90
3134;DHT22;1577;49.912;10.924;2023-11-21T03:56:19;8.60;99.90
3134;DHT22;1577;49.912;10.924;2023-11-21T03:58:47;8.60;99.90
3134;DHT22;1577;49.912;10.924;2023-11-21T04:01:20;8.60;99.90
3134;DHT22;1577;49.912;10.924;2023-11-21T04:03:47;8.60;99.90
3134;DHT22;1577;49.912;10.924;2023-11-21T04:06:12;8.60;99.90
3134;DHT22;1577;49.912;10.924;2023-11-21T04:08:38;8.50;99.90
3134;DHT22;1577;49.912;10.924;2023-11-21T04:11:03;8.50;99.90
3134;DHT22;1577;49.912;10.924;2023-11-21T04:13:29;8.50;99.90
3134;DHT22;1577;49.912;10.924;2023-11-21T04:15:56;8.50;99.90
3134;DHT22;1577;49.912;10.924;2023-11-21T04:18:21;8.50;99.90
3134;DHT22;1577;49.912;10.924;2023-11-21T04:20:48;8.50;99.90
3134;DHT22;1577;49.912;10.924;2023-11-21T04:23:15;8.40;99.90
3134;DHT22;1577;49.912;10.924;2023-11-21T04:25:40;8.50;99.90
3134;DHT22;1577;49.912;10.924;2023-11-21T04:28:06;8.50;99.90
3134;DHT22;1577;49.912;10.924;2023-11-21T04:30:31;8.50;99.90
3134;DHT22;1577;49.912;10.924;2023-11-21T04:32:58;8.50;99.90
3134;DHT22;1577;49.912;10.924;2023-11-21T04:35:23;8.60;99.90
3134;DHT22;1577;49.912;10.924;2023-11-21T04:37:49;8.60;99.90
3134;DHT22;1577;49.912;10.924;2023-11-21T04:40:16;8.60;99.90
3134;DHT22;1577;49.912;10.924;2023-11-21T04:42:42;8.60;99.90
3134;DHT22;1577;49.912;10.924;2023-11-21T04:45:08;8.60;99.90
3134;DHT22;1577;49.912;10.924;2023-11-21T04:47:35;8.60;99.90
3134;DHT22;1577;49.912;10.924;2023-11-21T04:50:01;8.50;99.90
3134;DHT22;1577;49.912;10.924;2023-11-21T04:52:28;8.50;99.90
3134;DHT22;1577;49.912;10.924;2023-11-21T04:54:53;8.60;99.90
3134;DHT22;1577;49.912;10.924;2023-11-21T04:57:23;8.60;99.90
3134;DHT22;1577;49.912;10.924;2023-11-21T04:59:49;8.60;99.90
3134;DHT22;1577;49.912;10.924;2023-11-21T05:02:14;8.70;99.90
3134;DHT22;1577;49.912;10.924;2023-11-21T05:04:40;8.70;99.90
3134;DHT22;1577;49.912;10.924;2023-11-21T05:07:08;8.80;99.90
3134;DHT22;1577;49.912;10.924;2023-11-21T05:09:33;8.90;99.90
3134;DHT22;1577;49.912;10.924;2023-11-21T05:11:59;8.80;99.90
3134;DHT22;1577;49.912;10.924;2023-11-21T05:14:25;8.70;99.90
3134;DHT22;1577;49.912;10.924;2023-11-21T05:16:51;8.80;99.90
3134;DHT22;1577;49.912;10.924;2023-11-21T05:19:17;8.70;99.90
3134;DHT22;1577;49.912;10.924;2023-11-21T05:21:43;8.80;99.90
3134;DHT22;1577;49.912;10.924;2023-11-21T05:24:08;8.80;99.90
3134;DHT22;1577;49.912;10.924;2023-11-21T05:26:35;8.80;99.90
3134;DHT22;1577;49.912;10.924;2023-11-21T05:29:00;8.90;99.90
3134;DHT22;1577;49.912;10.924;2023-11-21T05:31:26;8.90;99.90
3134;DHT22;1577;49.912;10.924;2023-11-21T05:33:52;8.90;99.90
3134;DHT22;1577;49.912;10.924;2023-11-21T05:36:18;8.80;99.90
3134;DHT22;1577;49.912;10.924;2023-11-21T05:38:44;8.80;99.90
3134;DHT22;1577;49.912;10.924;2023-11-21T05:41:09;8.80;99.90
3134;DHT22;1577;49.912;10.924;2023-11-21T05:43:39;8.80;99.90
3134;DHT22;1577;49.912;10.924;2023-11-21T05:46:05;8.80;99.90
3134;DHT22;1577;49.912;10.924;2023-11-21T05:48:32;8.80;99.90
3134;DHT22;1577;49.912;10.924;2023-11-21T05:50:58;8.80;99.90
3134;DHT22;1577;49.912;10.924;2023-11-21T05:53:24;8.80;99.90
3134;DHT22;1577;49.912;10.924;2023-11-21T05:55:50;8.80;99.90
3134;DHT22;1577;49.912;10.924;2023-11-21T05:58:15;8.80;99.90
3134;DHT22;1577;49.912;10.924;2023-11-21T06:00:41;8.80;99.90
3134;DHT22;1577;49.912;10.924;2023-11-21T06:03:07;8.70;99.90
3134;DHT22;1577;49.912;10.924;2023-11-21T06:05:33;8.70;99.90
3134;DHT22;1577;49.912;10.924;2023-11-21T06:07:59;8.80;99.90
3134;DHT22;1577;49.912;10.924;2023-11-21T06:10:26;8.80;99.90
3134;DHT22;1577;49.912;10.924;2023-11-21T06:12:52;8.80;99.90
3134;DHT22;1577;49.912;10.924;2023-11-21T06:15:18;8.80;99.90
3134;DHT22;1577;49.912;10.924;2023-11-21T06:17:48;8.80;99.90
3134;DHT22;1577;49.912;10.924;2023-11-21T06:20:21;8.70;99.90
3134;DHT22;1577;49.912;10.924;2023-11-21T06:22:49;8.70;99.90
3134;DHT22;1577;49.912;10.924;2023-11-21T06:25:16;8.70;99.90
3134;DHT22;1577;49.912;10.924;2023-11-21T06:27:43;8.70;99.90
3134;DHT22;1577;49.912;10.924;2023-11-21T06:30:13;8.70;99.90
3134;DHT22;1577;49.912;10.924;2023-11-21T06:32:40;8.80;99.90
3134;DHT22;1577;49.912;10.924;2023-11-21T06:35:07;8.80;99.90
3134;DHT22;1577;49.912;10.924;2023-11-21T06:37:35;8.80;99.90
3134;DHT22;1577;49.912;10.924;2023-11-21T06:40:01;8.80;99.90
3134;DHT22;1577;49.912;10.924;2023-11-21T06:42:29;8.80;99.90
3134;DHT22;1577;49.912;10.924;2023-11-21T06:44:54;8.70;99.90
3134;DHT22;1577;49.912;10.924;2023-11-21T06:47:23;8.80;99.90
3134;DHT22;1577;49.912;10.924;2023-11-21T06:49:52;8.80;99.90
3134;DHT22;1577;49.912;10.924;2023-11-21T06:52:18;8.80;99.90
3134;DHT22;1577;49.912;10.924;2023-11-21T06:54:45;8.80;99.90
3134;DHT22;1577;49.912;10.924;2023-11-21T06:57:11;8.80;99.90
3134;DHT22;1577;49.912;10.924;2023-11-21T06:59:37;8.80;99.90
3134;DHT22;1577;49.912;10.924;2023-11-21T07:02:03;9.00;99.90
3134;DHT22;1577;49.912;10.924;2023-11-21T07:04:30;9.10;99.90
3134;DHT22;1577;49.912;10.924;2023-11-21T07:06:55;9.10;99.90
3134;DHT22;1577;49.912;10.924;2023-11-21T07:09:21;9.10;99.90
3134;DHT22;1577;49.912;10.924;2023-11-21T07:11:50;9.20;99.90
3134;DHT22;1577;49.912;10.924;2023-11-21T07:14:16;9.10;99.90
3134;DHT22;1577;49.912;10.924;2023-11-21T07:16:42;9.10;99.90
3134;DHT22;1577;49.912;10.924;2023-11-21T07:19:08;9.10;99.90
3134;DHT22;1577;49.912;10.924;2023-11-21T07:21:37;9.20;99.90
3134;DHT22;1577;49.912;10.924;2023-11-21T07:24:03;9.30;99.90
3134;DHT22;1577;49.912;10.924;2023-11-21T07:26:30;9.40;99.90
3134;DHT22;1577;49.912;10.924;2023-11-21T07:28:55;9.30;99.90
3134;DHT22;1577;49.912;10.924;2023-11-21T07:31:22;9.30;99.90
3134;DHT22;1577;49.912;10.924;2023-11-21T07:33:47;9.40;99.90
3134;DHT22;1577;49.912;10.924;2023-11-21T07:36:14;9.40;99.90
3134;DHT22;1577;49.912;10.924;2023-11-21T07:38:41;9.30;99.90
3134;DHT22;1577;49.912;10.924;2023-11-21T07:41:07;9.40;99.90
3134;DHT22;1577;49.912;10.924;2023-11-21T07:43:36;9.50;99.90
3134;DHT22;1577;49.912;10.924;2023-11-21T07:46:02;9.50;99.90
3134;DHT22;1577;49.912;10.924;2023-11-21T07:48:32;9.50;99.90
3134;DHT22;1577;49.912;10.924;2023-11-21T07:50:58;9.50;99.90
3134;DHT22;1577;49.912;10.924;2023-11-21T07:53:24;9.50;99.90
3134;DHT22;1577;49.912;10.924;2023-11-21T07:56:05;9.40;99.90
3134;DHT22;1577;49.912;10.924;2023-11-21T07:58:31;9.50;99.90
3134;DHT22;1577;49.912;10.924;2023-11-21T08:01:02;9.30;99.90
3134;DHT22;1577;49.912;10.924;2023-11-21T08:03:28;9.30;99.90
3134;DHT22;1577;49.912;10.924;2023-11-21T08:05:56;9.20;99.90
3134;DHT22;1577;49.912;10.924;2023-11-21T08:08:21;9.30;99.90
3134;DHT22;1577;49.912;10.924;2023-11-21T08:10:47;9.30;99.90
3134;DHT22;1577;49.912;10.924;2023-11-21T08:13:30;9.40;99.90
3134;DHT22;1577;49.912;10.924;2023-11-21T08:15:57;9.50;99.90
3134;DHT22;1577;49.912;10.924;2023-11-21T08:18:30;9.50;99.90
3134;DHT22;1577;49.912;10.924;2023-11-21T08:20:56;9.50;99.90
3134;DHT22;1577;49.912;10.924;2023-11-21T08:23:22;9.70;99.90
3134;DHT22;1577;49.912;10.924;2023-11-21T08:25:51;9.80;99.90
3134;DHT22;1577;49.912;10.924;2023-11-21T08:28:17;10.00;99.90
3134;DHT22;1577;49.912;10.924;2023-11-21T08:30:43;10.10;99.90
3134;DHT22;1577;49.912;10.924;2023-11-21T08:33:09;10.00;99.90
3134;DHT22;1577;49.912;10.924;2023-11-21T08:35:36;10.20;99.90
3134;DHT22;1577;49.912;10.924;2023-11-21T08:38:02;10.20;99.90
3134;DHT22;1577;49.912;10.924;2023-11-21T08:40:28;10.20;99.90
3134;DHT22;1577;49.912;10.924;2023-11-21T08:42:54;10.20;99.90
3134;DHT22;1577;49.912;10.924;2023-11-21T08:45:20;10.30;99.90
3134;DHT22;1577;49.912;10.924;2023-11-21T08:47:46;10.50;99.90
3134;DHT22;1577;49.912;10.924;2023-11-21T08:50:12;10.60;99.90
3134;DHT22;1577;49.912;10.924;2023-11-21T08:52:41;10.50;99.90
3134;DHT22;1577;49.912;10.924;2023-11-21T08:55:08;10.50;99.90
3134;DHT22;1577;49.912;10.924;2023-11-21T08:57:37;10.50;99.90
3134;DHT22;1577;49.912;10.924;2023-11-21T09:00:04;10.50;99.90
3134;DHT22;1577;49.912;10.924;2023-11-21T09:02:33;10.60;99.90
3134;DHT22;1577;49.912;10.924;2023-11-21T09:05:00;10.60;99.90
3134;DHT22;1577;49.912;10.924;2023-11-21T09:07:28;10.60;99.90
3134;DHT22;1577;49.912;10.924;2023-11-21T09:09:54;10.70;99.90
3134;DHT22;1577;49.912;10.924;2023-11-21T09:12:20;10.80;99.90
3134;DHT22;1577;49.912;10.924;2023-11-21T09:14:46;10.90;99.90
3134;DHT22;1577;49.912;10.924;2023-11-21T09:17:12;10.80;99.90
3134;DHT22;1577;49.912;10.924;2023-11-21T09:19:38;10.80;99.90
3134;DHT22;1577;49.912;10.924;2023-11-21T09:22:04;10.90;99.90
3134;DHT22;1577;49.912;10.924;2023-11-21T09:24:33;11.00;99.90
3134;DHT22;1577;49.912;10.924;2023-11-21T09:26:59;11.10;99.90
3134;DHT22;1577;49.912;10.924;2023-11-21T09:29:28;11.10;99.90
3134;DHT22;1577;49.912;10.924;2023-11-21T09:31:54;11.10;99.90
3134;DHT22;1577;49.912;10.924;2023-11-21T09:34:20;11.00;99.90
3134;DHT22;1577;49.912;10.924;2023-11-21T09:36:46;11.00;99.90
3134;DHT22;1577;49.912;10.924;2023-11-21T09:39:12;11.10;99.90
3134;DHT22;1577;49.912;10.924;2023-11-21T09:41:51;11.20;99.90
3134;DHT22;1577;49.912;10.924;2023-11-21T09:44:35;11.30;99.90
3134;DHT22;1577;49.912;10.924;2023-11-21T09:47:02;11.30;99.90
3134;DHT22;1577;49.912;10.924;2023-11-21T09:49:28;11.30;99.90
3134;DHT22;1577;49.912;10.924;2023-11-21T09:51:58;11.40;99.90
3134;DHT22;1577;49.912;10.924;2023-11-21T09:54:28;11.40;99.90
3134;DHT22;1577;49.912;10.924;2023-11-21T09:56:55;11.50;99.90
3134;DHT22;1577;49.912;10.924;2023-11-21T09:59:21;11.60;99.90
3134;DHT22;1577;49.912;10.924;2023-11-21T10:01:47;11.70;99.90
3134;DHT22;1577;49.912;10.924;2023-11-21T10:04:13;11.70;99.90
3134;DHT22;1577;49.912;10.924;2023-11-21T10:06:41;11.70;99.90
3134;DHT22;1577;49.912;10.924;2023-11-21T10:09:10;11.70;99.90
3134;DHT22;1577;49.912;10.924;2023-11-21T10:11:41;11.70;99.90
3134;DHT22;1577;49.912;10.924;2023-11-21T10:14:08;11.70;99.90
3134;DHT22;1577;49.912;10.924;2023-11-21T10:16:36;11.70;99.90
3134;DHT22;1577;49.912;10.924;2023-11-21T10:19:04;11.70;99.90
3134;DHT22;1577;49.912;10.924;2023-11-21T10:21:32;11.80;99.90
3134;DHT22;1577;49.912;10.924;2023-11-21T10:23:58;11.80;99.90
3134;DHT22;1577;49.912;10.924;2023-11-21T10:26:26;11.80;99.90
3134;DHT22;1577;49.912;10.924;2023-11-21T10:28:56;11.80;99.90
3134;DHT22;1577;49.912;10.924;2023-11-21T10:31:23;11.90;99.90
3134;DHT22;1577;49.912;10.924;2023-11-21T10:33:50;11.90;99.90
3134;DHT22;1577;49.912;10.924;2023-11-21T10:36:26;12.00;99.90
3134;DHT22;1577;49.912;10.924;2023-11-21T10:38:52;12.00;99.90
3134;DHT22;1577;49.912;10.924;2023-11-21T10:41:19;12.00;99.90
3134;DHT22;1577;49.912;10.924;2023-11-21T10:43:45;11.90;99.90
3134;DHT22;1577;49.912;10.924;2023-11-21T10:46:11;12.00;99.90
3134;DHT22;1577;49.912;10.924;2023-11-21T10:48:36;12.00;99.90
3134;DHT22;1577;49.912;10.924;2023-11-21T10:51:07;12.00;99.90
3134;DHT22;1577;49.912;10.924;2023-11-21T10:53:41;11.80;99.90
3134;DHT22;1577;49.912;10.924;2023-11-21T10:56:08;11.80;99.90
3134;DHT22;1577;49.912;10.924;2023-11-21T10:58:43;11.80;99.90
3134;DHT22;1577;49.912;10.924;2023-11-21T11:01:09;11.70;99.90
3134;DHT22;1577;49.912;10.924;2023-11-21T11:03:39;11.70;99.90
3134;DHT22;1577;49.912;10.924;2023-11-21T11:06:06;11.50;99.90
3134;DHT22;1577;49.912;10.924;2023-11-21T11:08:37;11.40;99.90
3134;DHT22;1577;49.912;10.924;2023-11-21T11:11:21;11.60;99.90
3134;DHT22;1577;49.912;10.924;2023-11-21T11:13:47;11.70;99.90
3134;DHT22;1577;49.912;10.924;2023-11-21T11:16:13;11.80;99.90
3134;DHT22;1577;49.912;10.924;2023-11-21T11:18:42;11.80;99.90
3134;DHT22;1577;49.912;10.924;2023-11-21T11:24:13;11.60;99.90
3134;DHT22;1577;49.912;10.924;2023-11-21T11:26:56;11.50;99.90
3134;DHT22;1577;49.912;10.924;2023-11-21T11:34:48;11.40;99.90
3134;DHT22;1577;49.912;10.924;2023-11-21T11:37:16;11.50;99.90
3134;DHT22;1577;49.912;10.924;2023-11-21T11:39:42;11.50;99.90
3134;DHT22;1577;49.912;10.924;2023-11-21T11:42:16;11.50;99.90
3134;DHT22;1577;49.912;10.924;2023-11-21T11:47:30;11.50;99.90
3134;DHT22;1577;49.912;10.924;2023-11-21T11:50:11;11.50;99.90
3134;DHT22;1577;49.912;10.924;2023-11-21T11:55:10;11.60;99.90
3134;DHT22;1577;49.912;10.924;2023-11-21T11:57:37;11.50;99.90
3134;DHT22;1577;49.912;10.924;2023-11-21T12:02:57;11.50;99.90
3134;DHT22;1577;49.912;10.924;2023-11-21T12:05:25;11.70;99.90
3134;DHT22;1577;49.912;10.924;2023-11-21T12:07:55;11.80;99.90
3134;DHT22;1577;49.912;10.924;2023-11-21T12:10:27;11.70;99.90
3134;DHT22;1577;49.912;10.924;2023-11-21T12:12:55;11.70;99.90
3134;DHT22;1577;49.912;10.924;2023-11-21T12:15:21;11.80;99.90
3134;DHT22;1577;49.912;10.924;2023-11-21T12:17:47;11.70;99.90
3134;DHT22;1577;49.912;10.924;2023-11-21T12:20:15;11.70;99.90
3134;DHT22;1577;49.912;10.924;2023-11-21T12:22:50;11.70;99.90
3134;DHT22;1577;49.912;10.924;2023-11-21T12:25:19;11.70;99.90
3134;DHT22;1577;49.912;10.924;2023-11-21T12:27:54;11.80;99.90
3134;DHT22;1577;49.912;10.924;2023-11-21T12:30:22;12.00;99.90
3134;DHT22;1577;49.912;10.924;2023-11-21T12:32:50;12.00;99.90
3134;DHT22;1577;49.912;10.924;2023-11-21T12:35:21;12.10;99.90
3134;DHT22;1577;49.912;10.924;2023-11-21T12:37:47;12.10;99.90
3134;DHT22;1577;49.912;10.924;2023-11-21T12:40:14;12.20;99.90
3134;DHT22;1577;49.912;10.924;2023-11-21T12:42:47;12.20;99.90
3134;DHT22;1577;49.912;10.924;2023-11-21T12:47:50;12.30;99.90
3134;DHT22;1577;49.912;10.924;2023-11-21T12:50:27;12.30;99.90
3134;DHT22;1577;49.912;10.924;2023-11-21T12:55:34;12.50;99.90
3134;DHT22;1577;49.912;10.924;2023-11-21T12:58:07;12.60;99.90
3134;DHT22;1577;49.912;10.924;2023-11-21T13:00:47;12.70;99.90
3134;DHT22;1577;49.912;10.924;2023-11-21T13:03:15;12.70;99.90
3134;DHT22;1577;49.912;10.924;2023-11-21T13:05:49;12.60;99.90
3134;DHT22;1577;49.912;10.924;2023-11-21T13:08:21;12.50;99.90
3134;DHT22;1577;49.912;10.924;2023-11-21T13:10:51;12.40;99.90
3134;DHT22;1577;49.912;10.924;2023-11-21T13:13:17;12.40;99.90
3134;DHT22;1577;49.912;10.924;2023-11-21T13:15:49;12.40;99.90
3134;DHT22;1577;49.912;10.924;2023-11-21T13:18:16;12.30;99.90
3134;DHT22;1577;49.912;10.924;2023-11-21T13:20:42;12.20;99.90
3134;DHT22;1577;49.912;10.924;2023-11-21T13:23:09;12.20;99.90
3134;DHT22;1577;49.912;10.924;2023-11-21T13:25:40;12.10;99.90
3134;DHT22;1577;49.912;10.924;2023-11-21T13:28:11;12.10;99.90
3134;DHT22;1577;49.912;10.924;2023-11-21T13:30:37;12.10;99.90
3134;DHT22;1577;49.912;10.924;2023-11-21T13:33:06;12.20;99.90
3134;DHT22;1577;49.912;10.924;2023-11-21T13:35:34;12.10;99.90
3134;DHT22;1577;49.912;10.924;2023-11-21T13:38:07;12.10;99.90
3134;DHT22;1577;49.912;10.924;2023-11-21T13:40:33;12.00;99.90
3134;DHT22;1577;49.912;10.924;2023-11-21T13:43:05;12.00;99.90
3134;DHT22;1577;49.912;10.924;2023-11-21T13:45:38;12.00;99.90
3134;DHT22;1577;49.912;10.924;2023-11-21T13:48:07;12.00;99.90
3134;DHT22;1577;49.912;10.924;2023-11-21T13:50:48;11.90;99.90
3134;DHT22;1577;49.912;10.924;2023-11-21T13:53:20;11.90;99.90
3134;DHT22;1577;49.912;10.924;2023-11-21T13:55:49;11.80;99.90
3134;DHT22;1577;49.912;10.924;2023-11-21T13:58:16;11.70;99.90
3134;DHT22;1577;49.912;10.924;2023-11-21T14:00:48;11.60;99.90
3134;DHT22;1577;49.912;10.924;2023-11-21T14:03:22;11.60;99.90
3134;DHT22;1577;49.912;10.924;2023-11-21T14:05:48;11.50;99.90
3134;DHT22;1577;49.912;10.924;2023-11-21T14:08:20;11.40;99.90
3134;DHT22;1577;49.912;10.924;2023-11-21T14:10:47;11.30;99.90
3134;DHT22;1577;49.912;10.924;2023-11-21T14:13:23;11.30;99.90
3134;DHT22;1577;49.912;10.924;2023-11-21T14:15:50;11.20;99.90
3134;DHT22;1577;49.912;10.924;2023-11-21T14:18:17;11.20;99.90
3134;DHT22;1577;49.912;10.924;2023-11-21T14:20:51;11.20;99.90
3134;DHT22;1577;49.912;10.924;2023-11-21T14:23:17;11.10;99.90
3134;DHT22;1577;49.912;10.924;2023-11-21T14:25:43;11.10;99.90
3134;DHT22;1577;49.912;10.924;2023-11-21T14:28:09;11.00;99.90
3134;DHT22;1577;49.912;10.924;2023-11-21T14:30:40;11.00;99.90
3134;DHT22;1577;49.912;10.924;2023-11-21T14:33:06;11.00;99.90
3134;DHT22;1577;49.912;10.924;2023-11-21T14:35:34;10.90;99.90
3134;DHT22;1577;49.912;10.924;2023-11-21T14:38:00;11.00;99.90
3134;DHT22;1577;49.912;10.924;2023-11-21T14:40:26;11.00;99.90
3134;DHT22;1577;49.912;10.924;2023-11-21T14:42:56;11.00;99.90
3134;DHT22;1577;49.912;10.924;2023-11-21T14:45:22;11.00;99.90
3134;DHT22;1577;49.912;10.924;2023-11-21T14:47:51;11.00;99.90
3134;DHT22;1577;49.912;10.924;2023-11-21T14:50:40;11.00;99.90
3134;DHT22;1577;49.912;10.924;2023-11-21T14:53:23;10.90;99.90
3134;DHT22;1577;49.912;10.924;2023-11-21T14:56:09;10.90;99.90
3134;DHT22;1577;49.912;10.924;2023-11-21T14:58:35;10.90;99.90
3134;DHT22;1577;49.912;10.924;2023-11-21T15:01:02;10.90;99.90
3134;DHT22;1577;49.912;10.924;2023-11-21T15:03:29;10.80;99.90
3134;DHT22;1577;49.912;10.924;2023-11-21T15:06:02;10.80;99.90
3134;DHT22;1577;49.912;10.924;2023-11-21T15:08:56;10.70;99.90
3134;DHT22;1577;49.912;10.924;2023-11-21T15:11:34;10.70;99.90
3134;DHT22;1577;49.912;10.924;2023-11-21T15:14:00;10.70;99.90
3134;DHT22;1577;49.912;10.924;2023-11-21T15:16:26;10.60;99.90
3134;DHT22;1577;49.912;10.924;2023-11-21T15:18:55;10.60;99.90
3134;DHT22;1577;49.912;10.924;2023-11-21T15:21:21;10.60;99.90
3134;DHT22;1577;49.912;10.924;2023-11-21T15:23:47;10.60;99.90
3134;DHT22;1577;49.912;10.924;2023-11-21T15:26:13;10.50;99.90
3134;DHT22;1577;49.912;10.924;2023-11-21T15:28:39;10.50;99.90
3134;DHT22;1577;49.912;10.924;2023-11-21T15:31:05;10.40;99.90
3134;DHT22;1577;49.912;10.924;2023-11-21T15:33:30;10.40;99.90
3134;DHT22;1577;49.912;10.924;2023-11-21T15:35:56;10.30;99.90
3134;DHT22;1577;49.912;10.924;2023-11-21T15:38:23;10.20;99.90
3134;DHT22;1577;49.912;10.924;2023-11-21T15:40:49;10.20;99.90
3134;DHT22;1577;49.912;10.924;2023-11-21T15:43:15;10.10;99.90
3134;DHT22;1577;49.912;10.924;2023-11-21T15:45:41;10.10;99.90
3134;DHT22;1577;49.912;10.924;2023-11-21T15:48:07;10.00;99.90
3134;DHT22;1577;49.912;10.924;2023-11-21T15:50:33;10.00;99.90
3134;DHT22;1577;49.912;10.924;2023-11-21T15:53:00;10.00;99.90
3134;DHT22;1577;49.912;10.924;2023-11-21T15:55:26;10.00;99.90
3134;DHT22;1577;49.912;10.924;2023-11-21T15:57:52;10.00;99.90
3134;DHT22;1577;49.912;10.924;2023-11-21T16:00:18;10.00;99.90
3134;DHT22;1577;49.912;10.924;2023-11-21T16:02:46;9.90;99.90
3134;DHT22;1577;49.912;10.924;2023-11-21T16:05:11;9.90;99.90
3134;DHT22;1577;49.912;10.924;2023-11-21T16:07:40;9.90;99.90
3134;DHT22;1577;49.912;10.924;2023-11-21T16:10:10;9.90;99.90
3134;DHT22;1577;49.912;10.924;2023-11-21T16:12:41;9.90;99.90
3134;DHT22;1577;49.912;10.924;2023-11-21T16:15:07;10.00;99.90
3134;DHT22;1577;49.912;10.924;2023-11-21T16:17:37;10.00;99.90
3134;DHT22;1577;49.912;10.924;2023-11-21T16:20:04;10.00;99.90